createdAt,value
2023-02-28T00:01:29.363Z,-0.35
2023-02-28T00:03:57.122Z,-0.41
2023-02-28T00:06:25.209Z,-0.37
2023-02-28T00:08:52.633Z,-0.35
2023-02-28T00:11:19.986Z,-0.48
2023-02-28T00:13:48.839Z,-0.37
2023-02-28T00:16:23.133Z,-0.48
2023-02-28T00:18:50.961Z,-0.56
2023-02-28T00:21:19.317Z,-0.55
2023-02-28T00:23:46.823Z,-0.57
2023-02-28T00:26:14.185Z,-0.65
2023-02-28T00:28:45.409Z,-0.56
2023-02-28T00:31:12.677Z,-0.49
2023-02-28T00:33:39.916Z,-0.68
2023-02-28T00:36:10.754Z,-0.61
2023-02-28T00:38:39.805Z,-0.56
2023-02-28T00:41:08.199Z,-0.59
2023-02-28T00:43:38.342Z,-0.52
2023-02-28T00:46:06.861Z,-0.42
2023-02-28T00:48:34.238Z,-0.35
2023-02-28T00:51:01.861Z,-0.35
2023-02-28T00:53:29.751Z,-0.31
2023-02-28T00:55:58.494Z,-0.40
2023-02-28T00:58:27.067Z,-0.58
2023-02-28T01:00:55.378Z,-0.51
2023-02-28T01:03:23.816Z,-0.41
2023-02-28T01:05:51.782Z,-0.44
2023-02-28T01:08:19.210Z,-0.30
2023-02-28T01:10:46.559Z,-0.43
2023-02-28T01:13:14.748Z,-0.29
2023-02-28T01:15:49.446Z,-0.31
2023-02-28T01:18:16.747Z,-0.36
2023-02-28T01:20:44.712Z,-0.39
2023-02-28T01:23:15.109Z,-0.43
2023-02-28T01:25:42.431Z,-0.35
2023-02-28T01:28:09.615Z,-0.36
2023-02-28T01:30:36.976Z,-0.32
2023-02-28T01:33:04.228Z,-0.46
2023-02-28T01:35:36.969Z,-0.44
2023-02-28T01:38:20.352Z,-0.44
2023-02-28T01:40:49.075Z,-0.38
2023-02-28T01:43:32.727Z,-0.60
2023-02-28T01:46:00.534Z,-0.70
2023-02-28T01:48:38.236Z,-0.63
2023-02-28T01:51:16.121Z,-0.54
2023-02-28T01:53:50.189Z,-0.54
2023-02-28T01:56:23.520Z,-0.66
2023-02-28T01:58:55.209Z,-0.57
2023-02-28T02:01:28.682Z,-0.43
2023-02-28T02:04:01.972Z,-0.63
2023-02-28T02:06:43.612Z,-0.64
2023-02-28T02:09:12.183Z,-0.74
2023-02-28T02:11:43.538Z,-0.77
2023-02-28T02:15:09.282Z,-1.00
2023-02-28T02:17:44.929Z,-0.93
2023-02-28T02:20:52.952Z,-1.10
2023-02-28T02:23:53.157Z,-1.17
2023-02-28T02:27:12.024Z,-1.29
2023-02-28T02:30:29.203Z,-1.23
2023-02-28T02:33:21.035Z,-1.36
2023-02-28T02:35:57.490Z,-1.40
2023-02-28T02:38:40.441Z,-1.42
2023-02-28T02:41:21.618Z,-1.51
2023-02-28T02:44:02.594Z,-1.64
2023-02-28T02:46:40.772Z,-1.65
2023-02-28T02:49:24.205Z,-1.64
2023-02-28T02:51:55.392Z,-1.65
2023-02-28T02:54:29.724Z,-1.74
2023-02-28T02:57:06.640Z,-1.78
2023-02-28T02:59:35.698Z,-1.80
2023-02-28T03:02:07.289Z,-1.92
2023-02-28T03:04:43.517Z,-1.96
2023-02-28T03:07:10.959Z,-1.90
2023-02-28T03:09:38.511Z,-1.95
2023-02-28T03:12:13.939Z,-2.06
2023-02-28T03:14:55.724Z,-2.07
2023-02-28T03:17:32.347Z,-2.04
2023-02-28T03:20:03.794Z,-2.06
2023-02-28T03:22:58.076Z,-2.08
2023-02-28T03:25:47.235Z,-2.17
2023-02-28T03:28:27.352Z,-2.24
2023-02-28T03:31:04.590Z,-2.23
2023-02-28T03:33:55.673Z,-2.25
2023-02-28T03:36:44.976Z,-2.28
2023-02-28T03:39:48.712Z,-2.34
2023-02-28T03:42:46.312Z,-2.30
2023-02-28T03:45:30.861Z,-2.35
2023-02-28T03:48:20.314Z,-2.38
2023-02-28T03:50:53.508Z,-2.30
2023-02-28T03:53:47.043Z,-2.43
2023-02-28T03:56:28.265Z,-2.52
2023-02-28T03:59:00.219Z,-2.58
2023-02-28T04:01:42.579Z,-2.63
2023-02-28T04:04:11.992Z,-2.55
2023-02-28T04:06:39.895Z,-2.57
2023-02-28T04:09:09.482Z,-2.52
2023-02-28T04:11:46.985Z,-2.61
2023-02-28T04:14:14.190Z,-2.59
2023-02-28T04:16:43.242Z,-2.61
2023-02-28T04:19:13.469Z,-2.58
2023-02-28T04:21:47.078Z,-2.60
2023-02-28T04:24:26.950Z,-2.60
2023-02-28T04:26:57.952Z,-2.70
2023-02-28T04:29:33.649Z,-2.69
2023-02-28T04:32:02.522Z,-2.62
2023-02-28T04:34:32.730Z,-2.59
2023-02-28T04:37:16.955Z,-2.59
2023-02-28T04:39:45.037Z,-2.72
2023-02-28T04:42:13.439Z,-2.69
2023-02-28T04:44:40.725Z,-2.72
2023-02-28T04:47:08.013Z,-2.86
2023-02-28T04:49:35.295Z,-2.83
2023-02-28T04:52:02.937Z,-2.80
2023-02-28T04:54:31.033Z,-2.87
2023-02-28T04:56:58.485Z,-2.82
2023-02-28T04:59:25.841Z,-2.84
2023-02-28T05:01:53.042Z,-2.83
2023-02-28T05:04:20.309Z,-2.76
2023-02-28T05:06:47.641Z,-2.84
2023-02-28T05:09:14.839Z,-2.89
2023-02-28T05:11:42.744Z,-2.87
2023-02-28T05:14:15.233Z,-2.82
2023-02-28T05:16:43.360Z,-2.86
2023-02-28T05:19:10.643Z,-2.96
2023-02-28T05:21:41.961Z,-2.80
2023-02-28T05:24:12.976Z,-2.90
2023-02-28T05:26:43.131Z,-2.89
2023-02-28T05:29:11.197Z,-2.78
2023-02-28T05:31:38.972Z,-2.88
2023-02-28T05:34:06.552Z,-2.91
2023-02-28T05:36:34.359Z,-2.72
2023-02-28T05:39:01.563Z,-2.70
2023-02-28T05:41:29.287Z,-2.58
2023-02-28T05:43:58.217Z,-2.57
2023-02-28T05:46:25.505Z,-2.51
2023-02-28T05:48:52.722Z,-2.52
2023-02-28T05:51:20.235Z,-2.47
2023-02-28T05:53:49.290Z,-2.48
2023-02-28T05:56:16.840Z,-2.43
2023-02-28T05:58:44.050Z,-2.47
2023-02-28T06:01:25.422Z,-2.31
2023-02-28T06:03:52.720Z,-2.18
2023-02-28T06:06:20.134Z,-2.19
2023-02-28T06:08:47.511Z,-2.16
2023-02-28T06:11:15.256Z,-2.12
2023-02-28T06:13:42.720Z,-2.20
2023-02-28T06:16:12.413Z,-2.25
2023-02-28T06:18:40.355Z,-2.03
2023-02-28T06:21:07.721Z,-2.03
2023-02-28T06:23:35.028Z,-1.99
2023-02-28T06:26:03.056Z,-1.87
2023-02-28T06:28:30.342Z,-1.89
2023-02-28T06:30:57.513Z,-2.00
2023-02-28T06:33:25.009Z,-1.83
2023-02-28T06:35:53.378Z,-1.69
2023-02-28T06:38:20.815Z,-1.67
2023-02-28T06:40:58.938Z,-1.39
2023-02-28T06:43:29.668Z,-1.40
2023-02-28T06:45:58.478Z,-1.33
2023-02-28T06:48:27.667Z,-1.12
2023-02-28T06:51:06.033Z,-1.00
2023-02-28T06:53:34.093Z,-1.06
2023-02-28T06:56:06.644Z,-0.91
2023-02-28T06:58:34.847Z,-0.85
2023-02-28T07:01:02.960Z,-0.89
2023-02-28T07:03:32.759Z,-0.88
2023-02-28T07:06:02.082Z,-1.02
2023-02-28T07:08:29.718Z,-0.83
2023-02-28T07:10:57.596Z,-1.04
2023-02-28T07:13:25.424Z,-0.74
2023-02-28T07:16:02.724Z,-0.53
2023-02-28T07:18:30.258Z,0.01
2023-02-28T07:20:57.951Z,0.44
2023-02-28T07:23:25.455Z,0.83
2023-02-28T07:25:53.066Z,1.18
2023-02-28T07:28:20.558Z,2.09
2023-02-28T07:30:47.871Z,2.75
2023-02-28T07:33:15.627Z,3.13
2023-02-28T07:35:43.001Z,3.37
2023-02-28T07:38:10.468Z,4.05
2023-02-28T07:40:38.234Z,5.11
2023-02-28T07:43:05.546Z,5.46
2023-02-28T07:45:35.514Z,5.49
2023-02-28T07:48:03.038Z,5.98
2023-02-28T07:50:32.018Z,7.95
2023-02-28T07:53:00.632Z,9.69
2023-02-28T07:55:28.172Z,10.27
2023-02-28T07:57:55.577Z,10.06
2023-02-28T08:00:23.690Z,10.22
2023-02-28T08:02:51.353Z,10.82
2023-02-28T08:05:21.723Z,11.80
2023-02-28T08:07:50.532Z,12.02
2023-02-28T08:10:17.963Z,12.14
2023-02-28T08:12:45.287Z,11.66
2023-02-28T08:15:12.706Z,12.35
2023-02-28T08:17:40.069Z,13.16
2023-02-28T08:20:08.527Z,12.45
2023-02-28T08:22:35.732Z,11.88
2023-02-28T08:25:03.184Z,12.42
2023-02-28T08:27:30.686Z,13.08
2023-02-28T08:29:57.937Z,14.25
2023-02-28T08:32:30.077Z,14.12
2023-02-28T08:34:57.932Z,13.94
2023-02-28T08:37:25.543Z,14.48
2023-02-28T08:39:55.990Z,13.45
2023-02-28T08:42:24.907Z,13.77
2023-02-28T08:44:52.367Z,12.27
2023-02-28T08:47:20.074Z,12.77
2023-02-28T08:49:47.341Z,12.59
2023-02-28T08:52:14.680Z,13.49
2023-02-28T08:54:42.208Z,14.27
2023-02-28T08:57:09.450Z,12.81
2023-02-28T08:59:36.683Z,13.06
2023-02-28T09:02:04.112Z,13.14
2023-02-28T09:04:32.137Z,13.06
2023-02-28T09:06:59.419Z,12.82
2023-02-28T09:09:26.672Z,13.21
2023-02-28T09:11:56.226Z,13.60
2023-02-28T09:14:23.508Z,14.88
2023-02-28T09:16:51.212Z,15.22
2023-02-28T09:19:18.797Z,14.17
2023-02-28T09:21:46.458Z,15.93
2023-02-28T09:24:16.107Z,13.19
2023-02-28T09:26:56.378Z,14.18
2023-02-28T09:29:32.062Z,15.71
2023-02-28T09:31:59.906Z,16.26
2023-02-28T09:34:29.082Z,15.70
2023-02-28T09:36:56.647Z,16.77
2023-02-28T09:39:24.410Z,17.22
2023-02-28T09:41:54.771Z,16.38
2023-02-28T09:44:44.606Z,17.16
2023-02-28T09:47:30.651Z,17.91
2023-02-28T09:50:07.283Z,19.55
2023-02-28T09:52:36.029Z,20.59
2023-02-28T09:55:32.740Z,20.79
2023-02-28T09:58:03.256Z,18.82
2023-02-28T10:00:41.498Z,19.83
2023-02-28T10:03:38.004Z,19.78
2023-02-28T10:06:31.343Z,20.38
2023-02-28T10:09:04.046Z,18.73
2023-02-28T10:11:35.184Z,17.63
2023-02-28T10:14:35.255Z,17.28
2023-02-28T10:17:49.345Z,18.86
2023-02-28T10:20:30.954Z,16.24
2023-02-28T10:23:23.418Z,16.13
2023-02-28T10:26:18.167Z,16.34
2023-02-28T10:28:46.443Z,17.19
2023-02-28T10:31:20.671Z,16.70
2023-02-28T10:33:50.784Z,18.43
2023-02-28T10:36:24.827Z,17.88
2023-02-28T10:38:52.148Z,18.36
2023-02-28T10:41:31.027Z,17.50
2023-02-28T10:44:24.881Z,16.95
2023-02-28T10:46:52.769Z,17.39
2023-02-28T10:49:30.184Z,17.91
2023-02-28T10:52:01.625Z,17.91
2023-02-28T10:54:38.960Z,18.45
2023-02-28T10:57:25.504Z,17.74
2023-02-28T11:00:06.318Z,16.78
2023-02-28T11:02:38.809Z,17.77
2023-02-28T11:05:29.941Z,16.97
2023-02-28T11:08:19.081Z,17.31
2023-02-28T11:11:00.167Z,17.69
2023-02-28T11:13:36.256Z,17.23
2023-02-28T11:16:13.612Z,19.13
2023-02-28T11:18:56.484Z,19.05
2023-02-28T11:21:30.132Z,20.73
2023-02-28T11:24:43.030Z,19.30
2023-02-28T11:27:48.300Z,19.64
2023-02-28T11:30:39.628Z,20.29
2023-02-28T11:33:30.933Z,20.50
2023-02-28T11:36:10.863Z,20.10
2023-02-28T11:38:39.309Z,21.60
2023-02-28T11:41:33.814Z,21.39
2023-02-28T11:44:37.597Z,20.65
2023-02-28T11:47:16.503Z,19.92
2023-02-28T11:50:07.747Z,19.03
2023-02-28T11:52:52.456Z,19.60
2023-02-28T11:55:26.078Z,18.24
2023-02-28T11:58:14.494Z,16.97
2023-02-28T12:01:12.622Z,16.94
2023-02-28T12:04:19.627Z,16.29
2023-02-28T12:07:01.469Z,15.96
2023-02-28T12:10:11.804Z,16.17
2023-02-28T12:13:12.306Z,15.18
2023-02-28T12:16:07.064Z,16.39
2023-02-28T12:19:17.204Z,15.61
2023-02-28T12:22:21.569Z,15.83
2023-02-28T12:25:10.615Z,13.66
2023-02-28T12:27:47.104Z,13.35
2023-02-28T12:30:29.755Z,14.29
2023-02-28T12:33:10.417Z,13.07
2023-02-28T12:35:59.643Z,13.45
2023-02-28T12:38:39.296Z,13.61
2023-02-28T12:41:43.221Z,13.33
2023-02-28T12:44:17.758Z,13.86
2023-02-28T12:46:53.222Z,13.68
2023-02-28T12:49:27.316Z,14.19
2023-02-28T12:51:54.604Z,14.15
2023-02-28T12:54:46.287Z,13.51
2023-02-28T12:57:47.869Z,13.76
2023-02-28T13:00:24.093Z,12.71
2023-02-28T13:03:17.563Z,13.21
2023-02-28T13:06:33.268Z,13.04
2023-02-28T13:09:15.710Z,12.80
2023-02-28T13:11:56.828Z,12.68
2023-02-28T13:14:25.814Z,11.65
2023-02-28T13:17:14.518Z,11.13
2023-02-28T13:19:55.278Z,10.78
2023-02-28T13:22:40.068Z,10.32
2023-02-28T13:25:42.601Z,10.45
2023-02-28T13:28:34.339Z,10.29
2023-02-28T13:31:06.099Z,9.67
2023-02-28T13:34:00.484Z,9.11
2023-02-28T13:36:32.850Z,8.59
2023-02-28T13:39:36.383Z,8.73
2023-02-28T13:42:38.376Z,8.09
2023-02-28T13:45:05.572Z,7.01
2023-02-28T13:47:45.920Z,7.08
2023-02-28T13:50:30.804Z,6.91
2023-02-28T13:53:12.475Z,6.16
2023-02-28T13:56:10.169Z,5.63
2023-02-28T13:58:59.686Z,5.83
2023-02-28T14:02:04.276Z,5.65
2023-02-28T14:04:56.812Z,5.59
2023-02-28T14:07:54.378Z,5.69
2023-02-28T14:10:28.459Z,5.25
2023-02-28T14:12:59.126Z,5.10
2023-02-28T14:15:47.453Z,5.23
2023-02-28T14:18:27.772Z,4.94
2023-02-28T14:21:11.977Z,4.90
2023-02-28T14:23:56.928Z,4.87
2023-02-28T14:27:05.173Z,4.96
2023-02-28T14:30:27.586Z,4.84
2023-02-28T14:33:12.497Z,4.71
2023-02-28T14:36:07.267Z,4.55
2023-02-28T14:38:54.276Z,4.53
2023-02-28T14:41:36.545Z,4.15
2023-02-28T14:44:14.061Z,4.20
2023-02-28T14:46:43.678Z,4.22
2023-02-28T14:49:32.407Z,4.25
2023-02-28T14:52:21.878Z,3.96
2023-02-28T14:55:00.082Z,3.89
2023-02-28T14:57:51.178Z,4.01
2023-02-28T15:00:30.100Z,3.80
2023-02-28T15:02:59.603Z,3.47
2023-02-28T15:05:35.577Z,3.67
2023-02-28T15:08:17.361Z,3.68
2023-02-28T15:11:02.660Z,3.63
2023-02-28T15:13:47.417Z,3.50
2023-02-28T15:16:34.038Z,3.26
2023-02-28T15:19:37.483Z,3.21
2023-02-28T15:22:13.744Z,3.20
2023-02-28T15:24:48.778Z,3.09
2023-02-28T15:27:27.613Z,3.06
2023-02-28T15:30:06.163Z,2.83
2023-02-28T15:32:41.268Z,2.81
2023-02-28T15:35:32.120Z,2.84
2023-02-28T15:38:19.328Z,2.79
2023-02-28T15:40:58.412Z,2.68
2023-02-28T15:43:37.287Z,2.49
2023-02-28T15:46:14.776Z,2.43
2023-02-28T15:48:55.900Z,2.40
2023-02-28T15:51:35.649Z,2.38
2023-02-28T15:54:33.278Z,2.33
2023-02-28T15:57:11.639Z,2.18
2023-02-28T15:59:39.504Z,2.18
2023-02-28T16:02:22.057Z,2.07
2023-02-28T16:05:19.562Z,1.88
2023-02-28T16:07:47.168Z,1.92
2023-02-28T16:10:15.278Z,1.81
2023-02-28T16:12:43.180Z,1.78
2023-02-28T16:15:36.220Z,1.66
2023-02-28T16:18:03.474Z,1.57
2023-02-28T16:20:32.279Z,1.50
2023-02-28T16:23:03.849Z,1.46
2023-02-28T16:25:39.348Z,1.38
2023-02-28T16:28:33.584Z,1.26
2023-02-28T16:31:05.371Z,1.16
2023-02-28T16:33:34.052Z,1.05
2023-02-28T16:36:02.077Z,1.05
2023-02-28T16:38:29.408Z,0.98
2023-02-28T16:40:59.955Z,0.96
2023-02-28T16:43:28.723Z,0.86
2023-02-28T16:46:01.272Z,0.83
2023-02-28T16:48:28.890Z,0.73
2023-02-28T16:50:56.274Z,0.68
2023-02-28T16:53:23.788Z,0.76
2023-02-28T16:55:52.680Z,0.74
2023-02-28T16:58:22.492Z,0.67
2023-02-28T17:00:50.243Z,0.64
2023-02-28T17:03:33.500Z,0.54
2023-02-28T17:06:02.221Z,0.48
2023-02-28T17:08:35.323Z,0.49
2023-02-28T17:14:50.952Z,0.14
2023-02-28T17:17:24.457Z,0.05
2023-02-28T17:19:51.908Z,0.04
2023-02-28T17:22:19.158Z,0.05
2023-02-28T17:24:46.543Z,0.00
2023-02-28T17:27:14.334Z,-0.02
2023-02-28T17:29:42.754Z,-0.05
2023-02-28T17:32:17.916Z,0.02
2023-02-28T17:34:47.243Z,-0.05
2023-02-28T17:37:14.844Z,-0.04
2023-02-28T17:39:42.340Z,-0.04
2023-02-28T17:42:09.690Z,0.02
2023-02-28T17:44:38.743Z,-0.03
2023-02-28T17:47:06.018Z,-0.01
2023-02-28T17:49:34.297Z,0.04
2023-02-28T17:52:01.535Z,0.04
2023-02-28T17:54:28.985Z,0.01
2023-02-28T17:56:56.423Z,0.04
2023-02-28T17:59:23.766Z,0.10
2023-02-28T18:01:51.324Z,0.04
2023-02-28T18:05:08.648Z,-0.01
2023-02-28T18:07:45.428Z,-0.12
2023-02-28T18:10:22.346Z,-0.14
2023-02-28T18:12:52.436Z,-0.23
2023-02-28T18:15:22.584Z,-0.21
2023-02-28T18:17:50.964Z,-0.24
2023-02-28T18:20:19.604Z,-0.23
2023-02-28T18:22:47.748Z,-0.17
2023-02-28T18:25:17.264Z,-0.14
2023-02-28T18:27:58.486Z,-0.12
2023-02-28T18:30:32.596Z,-0.10
2023-02-28T18:33:03.100Z,-0.21
2023-02-28T18:35:37.582Z,-0.23
2023-02-28T18:38:19.426Z,-0.24
2023-02-28T18:41:13.243Z,-0.23
2023-02-28T18:43:41.004Z,-0.28
2023-02-28T18:46:15.532Z,-0.31
2023-02-28T18:48:43.637Z,-0.28
2023-02-28T18:51:24.242Z,-0.25
2023-02-28T18:53:52.400Z,-0.30
2023-02-28T18:56:23.936Z,-0.30
2023-02-28T18:58:53.289Z,-0.32
2023-02-28T19:01:31.166Z,-0.40
2023-02-28T19:04:03.761Z,-0.41
2023-02-28T19:06:32.976Z,-0.37
2023-02-28T19:09:03.826Z,-0.42
2023-02-28T19:11:31.437Z,-0.60
2023-02-28T19:13:59.016Z,-0.52
2023-02-28T19:16:28.192Z,-0.54
2023-02-28T19:18:55.956Z,-0.50
2023-02-28T19:21:24.880Z,-0.49
2023-02-28T19:23:52.457Z,-0.60
2023-02-28T19:26:24.319Z,-0.54
2023-02-28T19:28:51.758Z,-0.46
2023-02-28T19:31:24.791Z,-0.55
2023-02-28T19:33:53.109Z,-0.52
2023-02-28T19:36:21.622Z,-0.58
2023-02-28T19:38:49.433Z,-0.71
2023-02-28T19:41:19.163Z,-0.73
2023-02-28T19:43:47.568Z,-0.80
2023-02-28T19:46:15.192Z,-0.83
2023-02-28T19:48:44.864Z,-0.92
2023-02-28T19:51:14.059Z,-0.90
2023-02-28T19:53:43.217Z,-0.88
2023-02-28T19:56:11.822Z,-0.85
2023-02-28T19:58:39.807Z,-0.82
2023-02-28T20:01:08.166Z,-0.80
2023-02-28T20:03:35.765Z,-0.84
2023-02-28T20:06:07.807Z,-0.75
2023-02-28T20:08:36.277Z,-0.91
2023-02-28T20:11:06.636Z,-0.97
2023-02-28T20:13:35.442Z,-1.05
2023-02-28T20:16:09.657Z,-1.13
2023-02-28T20:18:38.913Z,-1.17
2023-02-28T20:21:09.764Z,-1.20
2023-02-28T20:23:39.539Z,-1.26
2023-02-28T20:26:10.219Z,-1.24
2023-02-28T20:28:37.820Z,-1.28
2023-02-28T20:31:16.807Z,-1.29
2023-02-28T20:33:46.793Z,-1.28
2023-02-28T20:36:15.775Z,-1.49
2023-02-28T20:38:43.902Z,-1.62
2023-02-28T20:41:12.252Z,-1.69
2023-02-28T20:43:40.582Z,-1.67
2023-02-28T20:46:08.547Z,-1.64
2023-02-28T20:48:36.591Z,-1.56
2023-02-28T20:51:05.551Z,-1.55
2023-02-28T20:53:35.280Z,-1.62
2023-02-28T20:56:16.246Z,-1.62
2023-02-28T20:58:46.606Z,-1.64
2023-02-28T21:01:17.023Z,-1.67
2023-02-28T21:03:50.803Z,-1.73
2023-02-28T21:06:22.621Z,-1.79
2023-02-28T21:08:50.639Z,-1.86
2023-02-28T21:11:27.104Z,-1.91
2023-02-28T21:13:54.704Z,-1.98
2023-02-28T21:16:25.541Z,-2.00
2023-02-28T21:18:54.612Z,-2.02
2023-02-28T21:21:25.773Z,-2.08
2023-02-28T21:23:53.096Z,-2.12
2023-02-28T21:26:23.525Z,-2.23
2023-02-28T21:28:57.501Z,-2.32
2023-02-28T21:31:27.846Z,-2.31
2023-02-28T21:33:57.197Z,-2.30
2023-02-28T21:36:32.712Z,-2.33
2023-02-28T21:39:04.796Z,-2.31
2023-02-28T21:41:32.037Z,-2.29
2023-02-28T21:43:59.293Z,-2.32
2023-02-28T21:46:29.581Z,-2.38
2023-02-28T21:48:58.242Z,-2.42
2023-02-28T21:51:31.196Z,-2.41
2023-02-28T21:54:00.451Z,-2.40
2023-02-28T21:56:34.734Z,-2.41
2023-02-28T21:59:03.787Z,-2.44
2023-02-28T22:01:46.229Z,-2.50
2023-02-28T22:04:22.539Z,-2.51
2023-02-28T22:06:54.584Z,-2.52
2023-02-28T22:09:22.520Z,-2.54
2023-02-28T22:11:50.631Z,-2.45
2023-02-28T22:14:18.437Z,-2.41
2023-02-28T22:16:51.997Z,-2.50
2023-02-28T22:19:21.340Z,-2.66
2023-02-28T22:21:49.898Z,-2.75
2023-02-28T22:24:24.241Z,-2.83
2023-02-28T22:26:52.734Z,-2.97
2023-02-28T22:29:20.218Z,-3.13
2023-02-28T22:31:47.672Z,-3.26
2023-02-28T22:34:15.117Z,-3.21
2023-02-28T22:36:43.538Z,-3.17
2023-02-28T22:39:11.925Z,-3.19
2023-02-28T22:41:39.631Z,-3.31
2023-02-28T22:44:07.388Z,-3.24
2023-02-28T22:46:36.167Z,-3.15
2023-02-28T22:49:05.458Z,-3.13
2023-02-28T22:51:33.753Z,-3.20
2023-02-28T22:54:02.107Z,-3.17
2023-02-28T22:56:30.851Z,-3.15
2023-02-28T22:59:03.896Z,-3.15
2023-02-28T23:01:34.858Z,-3.18
2023-02-28T23:04:03.079Z,-3.14
2023-02-28T23:06:35.672Z,-3.19
2023-02-28T23:09:06.731Z,-3.18
2023-02-28T23:11:44.331Z,-3.17
2023-02-28T23:14:13.389Z,-3.12
2023-02-28T23:16:50.656Z,-3.15
2023-02-28T23:19:29.631Z,-3.17
2023-02-28T23:21:58.817Z,-3.10
2023-02-28T23:24:28.769Z,-3.09
2023-02-28T23:27:00.485Z,-3.11
2023-02-28T23:29:28.458Z,-3.09
2023-02-28T23:31:56.470Z,-3.13
2023-02-28T23:34:28.477Z,-3.13
2023-02-28T23:36:57.902Z,-3.08
2023-02-28T23:39:27.076Z,-3.20
2023-02-28T23:41:55.034Z,-3.28
2023-02-28T23:44:22.385Z,-3.30
2023-02-28T23:46:52.216Z,-3.27
2023-02-28T23:49:21.100Z,-3.33
2023-02-28T23:51:50.544Z,-3.37
2023-02-28T23:54:18.532Z,-3.30
2023-02-28T23:56:46.197Z,-3.26
2023-02-28T23:59:13.713Z,-3.26
